Terminal Aerodrome Forecast
Issued by NWS

Home | Current Version | Previous Version | Text Only | Print | Product List | Glossary On
Versions: 1 2 3 4 5 6 7 8 9 10 11 12 13 14 15 16 17 18 19
997
FTUS43 KGRR 230530
TAFLAN
TAF
KLAN 230530Z 2306/2406 VRB03KT P6SM SKC
     FM231100 VRB03KT 4SM BR SKC
     FM231330 19004KT P6SM SKC=

USA.gov is the U.S. government's official web portal to all federal, state and local government web resources and services.